KMGR/MGR METAR and TAF weather

Enter ICAO airport designator
Station Type Date Time Source
KMGR METAR 2019/12/14 17:15 UTC NOAA

KMGR 141715Z AUTO 25005KT 10SM BKN009 BKN014 10/08 A2985 RMK AO2


Station Type Date Time Source
KMGR Decoded METAR 2019/12/14 17:15 UTC NOAA

Moultrie, Moultrie Municipal Airport, GA, United States (KMGR) 31-05-05N 083-48-11W
Dec 14, 2019 - 12:15 PM EST / 2019.12.14 1715 UTC
Wind: from the WSW (250 degrees) at 6 MPH (5 KT):0
Visibility: 10 mile(s):0
Sky conditions: mostly cloudy
Temperature: 50 F (10 C)
Dew Point: 46 F (8 C)
Relative Humidity: 87%
Pressure (altimeter): 29.85 in. Hg (1010 hPa)
ob: KMGR 141715Z AUTO 25005KT 10SM BKN009 BKN014 10/08 A2985 RMK AO2
cycle: 17

Station Type Date Time Source
KMGR TAF UTC NOAA

Error!

Example: see airport list